Time;durP1;ratioP1;P1;durP2;ratioP2;P2;SDS_P1;SDS_P2;PMS_P1;PMS_P2;Temp;Humidity;BMP_temperature;BMP_pressure;BME280_temperature;BME280_humidity;BME280_pressure;Samples;Min_cycle;Max_cycle;Signal;HPM_P1;HPM_P2
2022/10/11 00:02:19;;;;;;;;;;;;;;;11.92;65.56;101958.19;5010015;28;19927;-76
2022/10/11 00:04:46;;;;;;;;;;;;;;;11.89;65.37;101959.09;5006509;28;23246;-76
2022/10/11 00:07:11;;;;;;;;;;;;;;;11.90;65.83;101960.84;5006278;28;20037;-76
2022/10/11 00:09:37;;;;;;;;;;;;;;;11.86;65.52;101964.31;5011366;28;20582;-77
2022/10/11 00:12:02;;;;;;;;;;;;;;;11.89;65.95;101968.69;5011733;28;19921;-76
2022/10/11 00:14:27;;;;;;;;;;;;;;;11.83;66.18;101969.56;5015124;28;19928;-76
2022/10/11 00:16:54;;;;;;;;;;;;;;;11.90;65.94;101968.66;5016435;28;19929;-77
2022/10/11 00:19:19;;;;;;;;;;;;;;;11.94;66.17;101966.88;5011787;28;19921;-76
2022/10/11 00:21:45;;;;;;;;;;;;;;;11.89;65.86;101968.69;4998922;28;20283;-77
2022/10/11 00:24:11;;;;;;;;;;;;;;;11.85;65.62;101962.63;5006017;28;19925;-77
2022/10/11 00:26:36;;;;;;;;;;;;;;;11.81;65.79;101973.03;4999061;28;19965;-77
2022/10/11 00:29:02;;;;;;;;;;;;;;;11.86;65.65;101971.31;5009516;28;19961;-76
2022/10/11 00:31:27;;;;;;;;;;;;;;;11.90;65.26;101976.47;5009233;28;19975;-77
2022/10/11 00:33:53;;;;;;;;;;;;;;;11.88;65.68;101982.56;5008966;28;19927;-76
2022/10/11 00:36:18;;;;;;;;;;;;;;;11.94;65.16;101974.69;5015000;28;20042;-76
2022/10/11 00:38:44;;;;;;;;;;;;;;;11.90;65.29;101978.19;5001653;28;20333;-76
2022/10/11 00:41:10;;;;;;;;;;;;;;;11.85;66.01;101985.19;5009788;28;20279;-76
2022/10/11 00:43:35;;;;;;;;;;;;;;;11.87;65.32;101988.63;5008671;28;19917;-77
2022/10/11 00:46:06;;;;;;;;;;;;;;;11.81;65.20;101976.53;5014313;28;19960;-76
2022/10/11 00:48:39;;;;;;;;;;;;;;;11.70;65.12;101986.16;5009840;28;19944;-76
2022/10/11 00:51:10;;;;;;;;;;;;;;;11.52;65.60;101978.44;5011857;28;19929;-76
2022/10/11 00:53:35;;;;;;;;;;;;;;;11.60;65.25;101983.59;5011705;28;19932;-77
2022/10/11 00:56:06;;;;;;;;;;;;;;;11.57;65.35;101982.75;5006701;28;19933;-76
2022/10/11 00:58:33;;;;;;;;;;;;;;;11.55;65.44;101981.91;5007686;28;20379;-75
2022/10/11 01:00:59;;;;;;;;;;;;;;;11.51;65.14;101977.56;5009415;28;20330;-76
2022/10/11 01:03:25;;;;;;;;;;;;;;;11.54;64.84;101984.50;5008425;28;19925;-76
2022/10/11 01:05:51;;;;;;;;;;;;;;;11.46;64.76;101973.28;5007484;28;19922;-76
2022/10/11 01:08:17;;;;;;;;;;;;;;;11.42;65.31;101977.63;5006298;28;19933;-76
2022/10/11 01:10:43;;;;;;;;;;;;;;;11.36;65.33;101987.19;5014313;28;19933;-76
2022/10/11 01:13:27;;;;;;;;;;;;;;;11.34;65.20;101976.81;5013055;28;19928;-76
2022/10/11 01:15:58;;;;;;;;;;;;;;;11.32;64.93;101982.91;5009624;28;19988;-76
2022/10/11 01:18:29;;;;;;;;;;;;;;;11.25;64.93;101976.81;5018628;28;19929;-76
2022/10/11 01:21:06;;;;;;;;;;;;;;;11.25;65.57;101988.94;5008436;28;19978;-77
2022/10/11 01:23:44;;;;;;;;;;;;;;;11.24;65.44;101985.47;5010001;28;19928;-76
2022/10/11 01:26:18;;;;;;;;;;;;;;;11.27;64.96;101989.78;4995116;28;19931;-77
2022/10/11 01:28:59;;;;;;;;;;;;;;;11.16;64.58;101984.66;5008894;28;19917;-76
2022/10/11 01:31:34;;;;;;;;;;;;;;;11.17;65.21;101993.31;5007886;28;19957;-77
2022/10/11 01:34:03;;;;;;;;;;;;;;;11.12;65.02;101988.13;5006359;28;19925;-77
2022/10/11 01:36:35;;;;;;;;;;;;;;;11.17;64.37;101990.72;5011058;28;20408;-77
2022/10/11 01:39:07;;;;;;;;;;;;;;;11.26;64.28;101999.38;5006537;28;19929;-76
2022/10/11 01:41:37;;;;;;;;;;;;;;;11.14;64.28;101991.59;5004882;28;21038;-77
2022/10/11 01:44:04;;;;;;;;;;;;;;;11.15;64.66;101995.91;5006681;28;19924;-76
2022/10/11 01:46:30;;;;;;;;;;;;;;;11.15;64.61;101993.31;5010769;28;19979;-76
2022/10/11 01:48:57;;;;;;;;;;;;;;;11.13;64.32;101999.41;5010313;28;19925;-77
2022/10/11 01:51:25;;;;;;;;;;;;;;;10.99;64.61;102002.06;5005726;28;19925;-77
2022/10/11 01:53:54;;;;;;;;;;;;;;;11.08;65.15;102007.22;5010597;28;20338;-77
2022/10/11 01:56:25;;;;;;;;;;;;;;;11.08;64.18;102002.03;5005948;28;19925;-77
2022/10/11 01:59:05;;;;;;;;;;;;;;;11.00;64.51;102004.63;5007006;28;20008;-76
2022/10/11 02:01:48;;;;;;;;;;;;;;;10.92;64.71;102005.53;5001739;28;19909;-77
2022/10/11 02:04:16;;;;;;;;;;;;;;;10.98;65.13;102010.72;5008188;28;19937;-77
2022/10/11 02:06:49;;;;;;;;;;;;;;;10.99;64.76;102007.25;5005369;28;19929;-77
2022/10/11 02:09:15;;;;;;;;;;;;;;;10.87;64.60;102005.56;5010407;28;20017;-77
2022/10/11 02:11:40;;;;;;;;;;;;;;;10.83;64.14;102006.44;5010603;28;20000;-76
2022/10/11 02:14:08;;;;;;;;;;;;;;;10.84;64.10;102007.31;5012459;28;20422;-77
2022/10/11 02:16:38;;;;;;;;;;;;;;;10.90;63.82;102010.75;5008063;28;19971;-76
2022/10/11 02:19:05;;;;;;;;;;;;;;;10.78;64.51;102008.19;5007040;28;19928;-77
2022/10/11 02:21:32;;;;;;;;;;;;;;;10.72;64.32;102013.41;5005466;28;19921;-77
2022/10/11 02:24:20;;;;;;;;;;;;;;;10.69;64.21;102004.72;5006708;28;19925;-77
2022/10/11 02:26:47;;;;;;;;;;;;;;;10.75;63.71;102008.19;5005441;28;20292;-76
2022/10/11 02:29:15;;;;;;;;;;;;;;;10.70;63.60;102003.88;5004751;28;19932;-77
2022/10/11 02:31:42;;;;;;;;;;;;;;;10.70;63.99;102009.06;4989132;28;19925;-76
2022/10/11 02:34:16;;;;;;;;;;;;;;;10.69;64.11;102009.94;4986696;28;19917;-77
2022/10/11 02:36:49;;;;;;;;;;;;;;;10.65;63.26;102005.59;5005693;28;19925;-76
2022/10/11 02:39:17;;;;;;;;;;;;;;;10.64;63.61;102014.28;5007131;28;20389;-76
2022/10/11 02:41:45;;;;;;;;;;;;;;;10.56;63.77;102019.47;5010034;28;20000;-77
2022/10/11 02:44:20;;;;;;;;;;;;;;;10.55;62.88;102009.97;5007232;28;19921;-77
2022/10/11 02:46:46;;;;;;;;;;;;;;;10.49;63.28;102024.69;5003984;28;20008;-77
2022/10/11 02:49:12;;;;;;;;;;;;;;;10.55;63.61;102028.16;5007954;28;20023;-77
2022/10/11 02:51:37;;;;;;;;;;;;;;;10.56;63.82;102027.25;5000521;28;20268;-76
2022/10/11 02:54:02;;;;;;;;;;;;;;;10.49;62.87;102029.88;5006003;28;19928;-77
2022/10/11 02:56:28;;;;;;;;;;;;;;;10.54;63.52;102029.00;5002303;28;20526;-77
2022/10/11 02:58:53;;;;;;;;;;;;;;;10.62;63.45;102032.44;4990918;28;19929;-76
2022/10/11 03:01:18;;;;;;;;;;;;;;;10.54;63.11;102039.41;4995279;28;19928;-76
2022/10/11 03:03:43;;;;;;;;;;;;;;;10.49;63.84;102040.28;5006094;28;19949;-77
2022/10/11 03:06:09;;;;;;;;;;;;;;;10.48;63.74;102039.41;5007779;28;19979;-77
2022/10/11 03:08:34;;;;;;;;;;;;;;;10.51;63.90;102043.72;5007203;28;20322;-76
2022/10/11 03:10:59;;;;;;;;;;;;;;;10.56;63.59;102044.56;5008149;28;19964;-76
2022/10/11 03:13:25;;;;;;;;;;;;;;;10.45;63.70;102047.19;4994221;28;19925;-77
2022/10/11 03:15:51;;;;;;;;;;;;;;;10.52;63.57;102040.25;5007415;28;19930;-76
2022/10/11 03:18:16;;;;;;;;;;;;;;;10.63;63.38;102048.91;5008114;28;20030;-77
2022/10/11 03:20:42;;;;;;;;;;;;;;;10.52;63.62;102042.88;5006436;28;20354;-76
2022/10/11 03:23:07;;;;;;;;;;;;;;;10.45;63.27;102050.66;5005996;28;19932;-76
2022/10/11 03:25:32;;;;;;;;;;;;;;;10.45;62.96;102049.78;5005466;28;19984;-76
2022/10/11 03:27:58;;;;;;;;;;;;;;;10.38;63.46;102054.13;5007197;28;19917;-77
2022/10/11 03:30:23;;;;;;;;;;;;;;;10.30;63.83;102062.78;5006240;28;19936;-77
2022/10/11 03:32:48;;;;;;;;;;;;;;;10.32;63.25;102054.09;5003646;28;20403;-77
2022/10/11 03:35:13;;;;;;;;;;;;;;;10.36;63.46;102057.56;5006146;28;20303;-77
2022/10/11 03:37:39;;;;;;;;;;;;;;;10.29;63.53;102058.44;5007355;28;20294;-76
2022/10/11 03:40:05;;;;;;;;;;;;;;;10.35;63.78;102067.09;5007335;28;20331;-77
2022/10/11 03:42:30;;;;;;;;;;;;;;;10.32;62.89;102059.31;5004823;28;19984;-77
2022/10/11 03:44:56;;;;;;;;;;;;;;;10.27;63.18;102062.75;5007340;28;19965;-76
2022/10/11 03:47:21;;;;;;;;;;;;;;;10.25;63.77;102065.38;5007888;28;20016;-77
2022/10/11 03:49:46;;;;;;;;;;;;;;;10.26;63.23;102068.81;5006741;28;19932;-76
2022/10/11 03:52:11;;;;;;;;;;;;;;;10.35;63.51;102066.22;5009088;28;19972;-77
2022/10/11 03:54:37;;;;;;;;;;;;;;;10.24;63.43;102066.22;5005791;28;19925;-77
2022/10/11 03:57:02;;;;;;;;;;;;;;;10.20;63.42;102069.69;5011999;28;19966;-77
2022/10/11 03:59:27;;;;;;;;;;;;;;;10.09;63.72;102071.41;5003895;28;19925;-76
2022/10/11 04:01:53;;;;;;;;;;;;;;;10.18;63.32;102070.53;5004512;28;19988;-76
2022/10/11 04:04:18;;;;;;;;;;;;;;;10.21;63.09;102075.75;5007250;28;19906;-76
2022/10/11 04:06:43;;;;;;;;;;;;;;;10.29;62.99;102079.22;5006302;28;20406;-77
2022/10/11 04:09:08;;;;;;;;;;;;;;;10.21;62.84;102086.13;5010662;28;19929;-76
2022/10/11 04:11:34;;;;;;;;;;;;;;;10.18;62.88;102083.53;5004840;28;19936;-76
2022/10/11 04:13:59;;;;;;;;;;;;;;;10.15;63.06;102087.00;5015337;28;20720;-76
2022/10/11 04:16:24;;;;;;;;;;;;;;;10.14;63.18;102090.44;4998096;28;19932;-76
2022/10/11 04:18:50;;;;;;;;;;;;;;;10.18;62.99;102089.59;5009783;28;19936;-77
2022/10/11 04:21:15;;;;;;;;;;;;;;;10.17;62.96;102090.44;5008619;28;20445;-77
2022/10/11 04:23:40;;;;;;;;;;;;;;;10.23;63.37;102097.38;5009022;28;19932;-76
2022/10/11 04:26:06;;;;;;;;;;;;;;;10.10;63.03;102086.13;5010044;28;19953;-77
2022/10/11 04:28:32;;;;;;;;;;;;;;;10.10;63.09;102090.44;5010153;28;20017;-77
2022/10/11 04:30:57;;;;;;;;;;;;;;;10.11;62.90;102092.16;5007876;28;19944;-76
2022/10/11 04:33:22;;;;;;;;;;;;;;;10.01;63.01;102104.28;5010398;28;20306;-76
2022/10/11 04:35:47;;;;;;;;;;;;;;;10.09;63.80;102105.16;5011684;28;19922;-77
2022/10/11 04:38:13;;;;;;;;;;;;;;;10.10;63.41;102101.69;5006319;28;19961;-76
2022/10/11 04:40:38;;;;;;;;;;;;;;;10.08;63.70;102102.56;4993336;28;19948;-76
2022/10/11 04:43:03;;;;;;;;;;;;;;;10.06;63.79;102107.75;5013904;28;19932;-76
2022/10/11 04:45:29;;;;;;;;;;;;;;;10.01;63.65;102106.88;5010651;28;19940;-76
2022/10/11 04:47:54;;;;;;;;;;;;;;;10.03;64.15;102118.13;5017923;28;19928;-77
2022/10/11 04:50:20;;;;;;;;;;;;;;;10.05;63.34;102116.38;5007610;28;20016;-77
2022/10/11 04:52:45;;;;;;;;;;;;;;;9.90;63.50;102112.00;5006989;28;20329;-76
2022/10/11 04:55:11;;;;;;;;;;;;;;;9.92;63.84;102116.34;5008768;28;19937;-77
2022/10/11 04:57:36;;;;;;;;;;;;;;;10.02;63.42;102118.97;5008130;28;19925;-77
2022/10/11 05:00:03;;;;;;;;;;;;;;;9.99;63.27;102113.78;4991605;28;19975;-77
2022/10/11 05:02:28;;;;;;;;;;;;;;;9.94;63.29;102118.09;5010134;28;20286;-76
2022/10/11 05:04:54;;;;;;;;;;;;;;;9.89;63.90;102122.38;5009652;28;19918;-76
2022/10/11 05:07:19;;;;;;;;;;;;;;;9.83;64.44;102123.22;4992399;28;19917;-77
2022/10/11 05:09:44;;;;;;;;;;;;;;;9.87;64.31;102121.47;5008589;28;19956;-77
2022/10/11 05:12:10;;;;;;;;;;;;;;;10.00;65.14;102128.50;4996506;28;20425;-76
2022/10/11 05:14:35;;;;;;;;;;;;;;;10.09;65.10;102131.13;4999034;28;19963;-76
2022/10/11 05:17:00;;;;;;;;;;;;;;;10.19;65.00;102132.88;5011818;28;19921;-76
2022/10/11 05:19:25;;;;;;;;;;;;;;;10.04;64.94;102132.84;5016785;28;19924;-77
2022/10/11 05:21:51;;;;;;;;;;;;;;;10.06;65.06;102138.91;4995472;28;19925;-77
2022/10/11 05:24:16;;;;;;;;;;;;;;;10.09;64.82;102135.44;5008641;28;19925;-76
2022/10/11 05:26:41;;;;;;;;;;;;;;;10.05;65.17;102142.34;5013034;28;19921;-77
2022/10/11 05:29:07;;;;;;;;;;;;;;;10.17;65.30;102133.72;5008101;28;20020;-77
2022/10/11 05:31:32;;;;;;;;;;;;;;;10.20;65.83;102133.72;5004459;28;20012;-75
2022/10/11 05:33:58;;;;;;;;;;;;;;;10.31;65.49;102151.09;5007166;28;20433;-76
2022/10/11 05:36:24;;;;;;;;;;;;;;;10.33;66.22;102151.94;5008365;28;19928;-76
2022/10/11 05:38:49;;;;;;;;;;;;;;;10.45;66.33;102161.50;5008859;28;20306;-77
2022/10/11 05:41:14;;;;;;;;;;;;;;;10.46;65.45;102158.03;5003921;28;19926;-76
2022/10/11 05:43:40;;;;;;;;;;;;;;;10.43;66.86;102164.06;5003156;28;20067;-76
2022/10/11 05:46:05;;;;;;;;;;;;;;;10.57;66.25;102164.13;5000707;28;20067;-77
2022/10/11 05:48:31;;;;;;;;;;;;;;;10.46;66.40;102164.06;5003844;28;19981;-77
2022/10/11 05:51:01;;;;;;;;;;;;;;;10.57;66.57;102163.25;5003551;28;19921;-77
2022/10/11 05:53:26;;;;;;;;;;;;;;;10.62;66.47;102169.31;5003879;28;20428;-77
2022/10/11 05:55:51;;;;;;;;;;;;;;;10.62;66.82;102171.91;5006893;28;19930;-77
2022/10/11 05:58:17;;;;;;;;;;;;;;;10.54;67.11;102173.63;5006593;28;19932;-78
2022/10/11 06:00:43;;;;;;;;;;;;;;;10.58;67.16;102177.97;5005171;28;19922;-78
2022/10/11 06:03:09;;;;;;;;;;;;;;;10.61;67.14;102175.38;4995660;28;20486;-77
2022/10/11 06:05:35;;;;;;;;;;;;;;;10.62;67.19;102171.91;5007461;28;20063;-77
2022/10/11 06:08:00;;;;;;;;;;;;;;;10.72;67.18;102177.13;5011795;28;20410;-77
2022/10/11 06:10:26;;;;;;;;;;;;;;;10.66;67.76;102184.91;5009133;28;19929;-77
2022/10/11 06:12:51;;;;;;;;;;;;;;;10.58;67.84;102186.66;5005280;28;20290;-77
2022/10/11 06:15:16;;;;;;;;;;;;;;;10.63;67.50;102184.91;5006791;28;19956;-78
2022/10/11 06:17:41;;;;;;;;;;;;;;;10.63;67.52;102181.44;5007292;28;19925;-78
2022/10/11 06:20:07;;;;;;;;;;;;;;;10.67;68.19;102180.59;4989000;28;20487;-78
2022/10/11 06:22:33;;;;;;;;;;;;;;;10.64;68.07;102180.59;5004478;28;19924;-76
2022/10/11 06:24:58;;;;;;;;;;;;;;;10.79;67.92;102186.63;5007995;28;19917;-77
2022/10/11 06:27:23;;;;;;;;;;;;;;;10.87;67.56;102184.94;5007061;28;20138;-78
2022/10/11 06:29:49;;;;;;;;;;;;;;;10.83;67.61;102193.59;5007397;28;19922;-77
2022/10/11 06:32:14;;;;;;;;;;;;;;;10.90;68.25;102194.47;5005966;28;19937;-77
2022/10/11 06:34:39;;;;;;;;;;;;;;;10.92;68.14;102193.59;5010409;28;19917;-77
2022/10/11 06:37:05;;;;;;;;;;;;;;;10.89;68.29;102203.13;4994635;28;19921;-77
2022/10/11 06:39:30;;;;;;;;;;;;;;;10.91;68.33;102203.97;5009917;28;20340;-77
2022/10/11 06:41:55;;;;;;;;;;;;;;;10.98;68.51;102211.78;5009912;28;20004;-77
2022/10/11 06:44:20;;;;;;;;;;;;;;;10.99;67.97;102205.75;5012718;28;19929;-77
2022/10/11 06:46:46;;;;;;;;;;;;;;;10.99;68.49;102218.75;5011756;28;19956;-76
2022/10/11 06:49:11;;;;;;;;;;;;;;;11.05;67.44;102215.28;5007467;28;20418;-77
2022/10/11 06:51:36;;;;;;;;;;;;;;;11.09;67.72;102211.78;4983294;28;19929;-77
2022/10/11 06:54:02;;;;;;;;;;;;;;;11.14;67.83;102224.81;5004875;28;19932;-77
2022/10/11 06:56:31;;;;;;;;;;;;;;;10.97;68.44;102224.78;5000534;28;20394;-77
2022/10/11 06:58:57;;;;;;;;;;;;;;;11.00;68.69;102224.78;4988823;28;19922;-77
2022/10/11 07:01:22;;;;;;;;;;;;;;;10.99;68.72;102234.34;5005929;28;19943;-77
2022/10/11 07:03:48;;;;;;;;;;;;;;;11.02;68.78;102236.06;5006051;28;19921;-77
2022/10/11 07:06:15;;;;;;;;;;;;;;;11.13;68.13;102239.53;5005800;28;19933;-77
2022/10/11 07:08:40;;;;;;;;;;;;;;;11.08;68.23;102240.41;5006354;28;19929;-77
2022/10/11 07:11:10;;;;;;;;;;;;;;;11.08;68.73;102243.88;5004885;28;19933;-77
2022/10/11 07:13:35;;;;;;;;;;;;;;;11.14;68.83;102237.81;5003887;28;19933;-77
2022/10/11 07:16:05;;;;;;;;;;;;;;;11.19;68.33;102249.06;5006413;28;19917;-77
2022/10/11 07:18:30;;;;;;;;;;;;;;;11.16;68.77;102249.06;5004204;28;19972;-77
2022/10/11 07:20:56;;;;;;;;;;;;;;;11.28;68.12;102252.56;4993230;28;20729;-77
2022/10/11 07:23:21;;;;;;;;;;;;;;;11.21;68.54;102250.78;5005243;28;20295;-77
2022/10/11 07:25:47;;;;;;;;;;;;;;;11.25;68.35;102249.94;5004267;28;19961;-77
2022/10/11 07:28:12;;;;;;;;;;;;;;;11.28;68.09;102260.38;5006520;28;19913;-77
2022/10/11 07:30:38;;;;;;;;;;;;;;;11.28;68.68;102260.38;5007329;28;19964;-77
2022/10/11 07:33:03;;;;;;;;;;;;;;;11.34;67.99;102260.38;5005343;28;20004;-77
2022/10/11 07:35:29;;;;;;;;;;;;;;;11.29;68.27;102259.53;5007046;28;20439;-77
2022/10/11 07:37:54;;;;;;;;;;;;;;;11.34;68.42;102259.50;5005912;28;19925;-76
2022/10/11 07:40:20;;;;;;;;;;;;;;;11.38;67.82;102263.84;4992682;28;20017;-77
2022/10/11 07:42:45;;;;;;;;;;;;;;;11.42;68.29;102260.34;5011059;28;20538;-77
2022/10/11 07:45:10;;;;;;;;;;;;;;;11.46;68.08;102264.69;5010617;28;20020;-77
2022/10/11 07:47:35;;;;;;;;;;;;;;;11.38;68.35;102267.28;5014785;28;19921;-77
2022/10/11 07:50:01;;;;;;;;;;;;;;;11.42;68.79;102268.16;5011549;28;19921;-77
2022/10/11 07:52:26;;;;;;;;;;;;;;;11.49;68.10;102265.56;4991781;28;20426;-77
2022/10/11 07:54:51;;;;;;;;;;;;;;;11.49;67.95;102268.19;4995229;28;19973;-77
2022/10/11 07:57:17;;;;;;;;;;;;;;;11.47;66.82;102262.09;5009888;28;19925;-77
2022/10/11 07:59:42;;;;;;;;;;;;;;;11.55;67.14;102270.78;5003652;28;19921;-77
2022/10/11 08:02:10;;;;;;;;;;;;;;;11.49;67.09;102269.91;5016690;28;19932;-77
2022/10/11 08:04:36;;;;;;;;;;;;;;;11.54;66.79;102274.22;5000548;28;20374;-76
2022/10/11 08:07:01;;;;;;;;;;;;;;;11.49;67.08;102278.59;5010280;28;19916;-77
2022/10/11 08:09:26;;;;;;;;;;;;;;;11.47;67.55;102277.69;5004435;28;19936;-77
2022/10/11 08:11:51;;;;;;;;;;;;;;;11.59;67.43;102286.38;5006059;28;19932;-77
2022/10/11 08:14:17;;;;;;;;;;;;;;;11.56;67.01;102284.66;5012009;28;19984;-77
2022/10/11 08:16:43;;;;;;;;;;;;;;;11.49;67.19;102272.50;5011951;28;19929;-77
2022/10/11 08:19:08;;;;;;;;;;;;;;;11.49;67.34;102281.19;5009144;28;19932;-77
2022/10/11 08:21:34;;;;;;;;;;;;;;;11.55;67.21;102286.38;5008885;28;19953;-77
2022/10/11 08:24:01;;;;;;;;;;;;;;;11.56;66.92;102282.91;5007427;28;19958;-76
2022/10/11 08:26:26;;;;;;;;;;;;;;;11.55;66.98;102283.78;5009842;28;19968;-77
2022/10/11 08:28:51;;;;;;;;;;;;;;;11.45;67.37;102289.84;4995028;28;19992;-77
2022/10/11 08:31:17;;;;;;;;;;;;;;;11.53;67.95;102298.50;5000745;28;19918;-77
2022/10/11 08:33:42;;;;;;;;;;;;;;;11.48;68.19;102287.25;5009529;28;19925;-77
2022/10/11 08:36:08;;;;;;;;;;;;;;;11.57;67.71;102297.66;5009661;28;19921;-76
2022/10/11 08:38:34;;;;;;;;;;;;;;;11.48;67.01;102286.38;5007316;28;20402;-77
2022/10/11 08:41:00;;;;;;;;;;;;;;;11.45;68.16;102295.06;5007925;28;19924;-77
2022/10/11 08:43:25;;;;;;;;;;;;;;;11.49;67.58;102291.59;5014723;28;20264;-77
2022/10/11 08:45:53;;;;;;;;;;;;;;;11.61;67.85;102295.94;5014647;28;19922;-77
2022/10/11 08:48:18;;;;;;;;;;;;;;;11.65;68.10;102294.19;5014590;28;19921;-77
2022/10/11 08:50:46;;;;;;;;;;;;;;;11.70;67.42;102297.66;5007890;28;19936;-77
2022/10/11 08:53:14;;;;;;;;;;;;;;;11.72;67.75;102296.78;5011963;28;19921;-77
2022/10/11 08:55:46;;;;;;;;;;;;;;;11.73;67.56;102295.91;5008936;28;19914;-77
2022/10/11 08:58:14;;;;;;;;;;;;;;;11.78;67.10;102299.38;5008483;28;19918;-77
2022/10/11 09:00:40;;;;;;;;;;;;;;;11.73;67.60;102295.03;5007650;28;20457;-77
2022/10/11 09:03:05;;;;;;;;;;;;;;;11.87;67.06;102291.53;5007401;28;20060;-77
2022/10/11 09:05:34;;;;;;;;;;;;;;;11.93;66.52;102286.31;5008091;28;20295;-77
2022/10/11 09:08:28;;;;;;;;;;;;;;;11.96;66.99;102288.03;5005010;28;20346;-77
2022/10/11 09:10:57;;;;;;;;;;;;;;;11.98;66.86;102294.09;4979041;28;19940;-77
2022/10/11 09:13:42;;;;;;;;;;;;;;;11.86;67.05;102294.16;5008549;28;19913;-77
2022/10/11 09:16:25;;;;;;;;;;;;;;;11.89;67.08;102288.94;5009400;28;19930;-77
2022/10/11 09:19:11;;;;;;;;;;;;;;;11.96;66.49;102288.03;5013784;28;20017;-77
2022/10/11 09:21:51;;;;;;;;;;;;;;;12.09;66.23;102288.03;4984855;28;19921;-77
2022/10/11 09:24:17;;;;;;;;;;;;;;;12.13;67.24;102294.06;5007486;28;19921;-77
2022/10/11 09:26:45;;;;;;;;;;;;;;;12.19;66.54;102287.97;5010849;28;20271;-77
2022/10/11 09:29:23;;;;;;;;;;;;;;;12.06;66.13;102292.38;5008949;28;20413;-77
2022/10/11 09:31:51;;;;;;;;;;;;;;;12.01;66.45;102288.88;5009604;28;20027;-77
2022/10/11 09:34:17;;;;;;;;;;;;;;;12.03;65.79;102288.03;5008758;28;19922;-77
2022/10/11 09:37:08;;;;;;;;;;;;;;;11.99;66.22;102294.13;5013052;28;19917;-77
2022/10/11 09:39:36;;;;;;;;;;;;;;;12.09;66.65;102295.84;4977927;28;19921;-77
2022/10/11 09:42:01;;;;;;;;;;;;;;;12.13;66.38;102289.72;5006493;28;20444;-77
2022/10/11 09:44:28;;;;;;;;;;;;;;;12.11;67.07;102290.59;5006800;28;20036;-77
2022/10/11 09:46:54;;;;;;;;;;;;;;;12.13;66.49;102291.47;5008758;28;19959;-77
2022/10/11 09:49:21;;;;;;;;;;;;;;;12.26;65.83;102293.16;5011561;28;20465;-77
2022/10/11 09:51:52;;;;;;;;;;;;;;;12.23;65.63;102293.16;5008322;28;19925;-77
2022/10/11 09:54:19;;;;;;;;;;;;;;;12.15;65.50;102292.34;5008025;28;20401;-77
2022/10/11 09:56:45;;;;;;;;;;;;;;;12.18;65.18;102294.06;5005478;28;19930;-77
2022/10/11 09:59:19;;;;;;;;;;;;;;;12.04;65.50;102299.28;5006343;28;19979;-77
2022/10/11 10:01:45;;;;;;;;;;;;;;;12.08;65.75;102299.31;5007378;28;19960;-77
2022/10/11 10:04:12;;;;;;;;;;;;;;;12.24;66.16;102299.25;5005926;28;19951;-77
2022/10/11 10:06:37;;;;;;;;;;;;;;;12.34;65.70;102293.13;5000081;28;19925;-77
2022/10/11 10:09:19;;;;;;;;;;;;;;;12.33;64.97;102294.00;5007578;28;20437;-77
2022/10/11 10:11:44;;;;;;;;;;;;;;;12.23;65.29;102289.69;5008131;28;20355;-77
2022/10/11 10:14:19;;;;;;;;;;;;;;;12.23;65.30;102287.09;5009668;28;20012;-77
2022/10/11 10:16:44;;;;;;;;;;;;;;;12.20;65.21;102284.50;5016052;28;19975;-77
2022/10/11 10:19:24;;;;;;;;;;;;;;;12.18;65.28;102283.66;5005937;28;20363;-77
2022/10/11 10:21:50;;;;;;;;;;;;;;;12.10;65.05;102288.84;5007408;28;20386;-77
2022/10/11 10:24:17;;;;;;;;;;;;;;;12.09;65.36;102281.94;5005994;28;19952;-77
2022/10/11 10:27:03;;;;;;;;;;;;;;;12.03;65.43;102287.16;5007264;28;19968;-77
2022/10/11 10:29:28;;;;;;;;;;;;;;;12.09;64.66;102288.03;5005179;28;19964;-77
2022/10/11 10:31:55;;;;;;;;;;;;;;;11.96;65.41;102285.44;5015989;28;19963;-77
2022/10/11 10:34:25;;;;;;;;;;;;;;;12.07;65.56;102294.94;5008344;28;19918;-77
2022/10/11 10:36:55;;;;;;;;;;;;;;;12.14;66.32;102293.19;5005997;28;19929;-77
2022/10/11 10:39:23;;;;;;;;;;;;;;;12.13;66.28;102294.06;5005960;28;19925;-77
2022/10/11 10:41:49;;;;;;;;;;;;;;;12.08;65.62;102293.22;5010173;28;19943;-77
2022/10/11 10:44:14;;;;;;;;;;;;;;;12.12;65.54;102287.13;5000231;28;19925;-77
2022/10/11 10:46:39;;;;;;;;;;;;;;;12.13;66.31;102285.41;5016288;28;19987;-76
2022/10/11 10:49:11;;;;;;;;;;;;;;;12.07;65.55;102284.53;5007692;28;20016;-77
2022/10/11 10:51:47;;;;;;;;;;;;;;;11.99;65.23;102280.22;5002721;28;19933;-77
2022/10/11 10:54:38;;;;;;;;;;;;;;;12.13;65.42;102281.03;5004900;28;19929;-77
2022/10/11 10:57:13;;;;;;;;;;;;;;;12.24;66.12;102279.28;4982758;28;19929;-76
2022/10/11 10:59:43;;;;;;;;;;;;;;;12.35;65.78;102276.63;5010908;28;19932;-77
2022/10/11 11:02:32;;;;;;;;;;;;;;;12.37;65.46;102265.31;5008736;28;20351;-77
2022/10/11 11:05:27;;;;;;;;;;;;;;;12.38;65.88;102269.66;5006703;28;20434;-77
2022/10/11 11:08:03;;;;;;;;;;;;;;;12.22;65.30;102273.19;4992846;28;20388;-77
2022/10/11 11:10:43;;;;;;;;;;;;;;;12.25;65.43;102272.31;5003672;28;20421;-77
2022/10/11 11:13:17;;;;;;;;;;;;;;;12.25;65.81;102270.56;5005724;28;19933;-77
2022/10/11 11:15:46;;;;;;;;;;;;;;;12.29;66.19;102271.44;5007533;28;19921;-77
2022/10/11 11:18:12;;;;;;;;;;;;;;;12.27;65.38;102268.84;5015190;28;19936;-77
2022/10/11 11:20:52;;;;;;;;;;;;;;;12.31;66.31;102261.88;5002981;28;19921;-77
2022/10/11 11:23:26;;;;;;;;;;;;;;;12.24;65.79;102268.88;5013077;28;19921;-77
2022/10/11 11:25:51;;;;;;;;;;;;;;;12.26;65.35;102261.03;5009309;28;19975;-77
2022/10/11 11:28:37;;;;;;;;;;;;;;;12.23;65.70;102258.44;5009007;28;19922;-77
2022/10/11 11:31:10;;;;;;;;;;;;;;;12.16;66.15;102260.19;5008930;28;20414;-78
2022/10/11 11:33:50;;;;;;;;;;;;;;;12.19;64.88;102259.31;5003290;28;19925;-77
2022/10/11 11:36:26;;;;;;;;;;;;;;;12.22;65.25;102259.28;5005071;28;19921;-78
2022/10/11 11:38:55;;;;;;;;;;;;;;;12.14;64.81;102251.53;5010289;28;20466;-78
2022/10/11 11:41:35;;;;;;;;;;;;;;;12.23;65.20;102253.22;5013858;28;20580;-77
2022/10/11 11:44:09;;;;;;;;;;;;;;;12.28;65.47;102252.31;5009026;28;19936;-77
2022/10/11 11:46:39;;;;;;;;;;;;;;;12.26;65.26;102246.25;5015718;28;19937;-76
2022/10/11 11:49:11;;;;;;;;;;;;;;;12.36;65.75;102247.09;5011684;28;19925;-77
2022/10/11 11:51:44;;;;;;;;;;;;;;;12.37;64.85;102243.59;5008749;28;20310;-77
2022/10/11 11:54:21;;;;;;;;;;;;;;;12.43;64.53;102243.56;5015290;28;19928;-77
2022/10/11 11:56:52;;;;;;;;;;;;;;;12.41;64.66;102243.59;4999663;28;19926;-77
2022/10/11 11:59:21;;;;;;;;;;;;;;;12.36;64.99;102236.66;5012990;28;19960;-77
2022/10/11 12:02:05;;;;;;;;;;;;;;;12.42;64.47;102234.03;5013468;28;19917;-77
2022/10/11 12:04:35;;;;;;;;;;;;;;;12.40;65.34;102235.75;5011699;28;19929;-77
2022/10/11 12:07:05;;;;;;;;;;;;;;;12.43;63.93;102238.34;5016179;28;20345;-77
2022/10/11 12:09:31;;;;;;;;;;;;;;;12.39;64.90;102231.44;5013998;28;19929;-77
2022/10/11 12:12:02;;;;;;;;;;;;;;;12.38;63.73;102224.50;5009404;28;19983;-77
2022/10/11 12:14:30;;;;;;;;;;;;;;;12.52;62.47;102220.06;4994734;28;19922;-77
2022/10/11 12:17:11;;;;;;;;;;;;;;;12.57;61.70;102227.00;5013601;28;19925;-77
2022/10/11 12:19:38;;;;;;;;;;;;;;;12.58;61.91;102222.66;5004018;28;19942;-77
2022/10/11 12:22:19;;;;;;;;;;;;;;;12.49;61.70;102215.72;5011576;28;19921;-77
2022/10/11 12:24:54;;;;;;;;;;;;;;;12.51;62.66;102218.34;5016407;28;20310;-77
2022/10/11 12:27:54;;;;;;;;;;;;;;;12.55;61.73;102207.91;5008983;28;19925;-77
2022/10/11 12:30:38;;;;;;;;;;;;;;;12.54;60.99;102206.16;4952769;28;19930;-77
2022/10/11 12:33:17;;;;;;;;;;;;;;;12.58;59.62;102204.41;5002337;28;19976;-78
2022/10/11 12:35:54;;;;;;;;;;;;;;;12.54;59.68;102208.78;5012410;28;19925;-77
2022/10/11 12:38:27;;;;;;;;;;;;;;;12.53;60.52;102207.06;5006613;28;21368;-77
2022/10/11 12:41:19;;;;;;;;;;;;;;;12.63;59.34;102202.66;5004813;28;19926;-77
2022/10/11 12:43:44;;;;;;;;;;;;;;;12.64;60.37;102193.94;5010422;28;19921;-77
2022/10/11 12:46:28;;;;;;;;;;;;;;;12.65;60.19;102190.47;5010143;28;20016;-77